Time;durP1;ratioP1;P1;durP2;ratioP2;P2;SDS_P1;SDS_P2;PMS_P1;PMS_P2;Temp;Humidity;BMP_temperature;BMP_pressure;BME280_temperature;BME280_humidity;BME280_pressure;Samples;Min_cycle;Max_cycle;Signal;HPM_P1;HPM_P2
2022/03/15 00:00:08;;;;;;;6.53;3.40;;;2.20;42.50;;;;;;6213393;23;20008;-82
2022/03/15 00:02:34;;;;;;;13.02;5.30;;;2.30;42.70;;;;;;6187851;23;20343;-81
2022/03/15 00:05:01;;;;;;;12.32;5.40;;;2.20;42.50;;;;;;6187090;23;20001;-80
2022/03/15 00:07:26;;;;;;;21.92;10.85;;;2.20;42.60;;;;;;6212581;23;20009;-80
2022/03/15 00:09:52;;;;;;;14.38;7.00;;;2.10;42.40;;;;;;6212514;23;20024;-80
2022/03/15 00:12:18;;;;;;;14.07;6.97;;;2.20;42.40;;;;;;6212746;23;20008;-80
2022/03/15 00:14:44;;;;;;;22.40;7.53;;;2.10;43.00;;;;;;6186875;23;20032;-80
2022/03/15 00:17:10;;;;;;;15.23;6.72;;;2.10;43.00;;;;;;6212577;23;20001;-79
2022/03/15 00:19:36;;;;;;;19.35;7.57;;;2.00;43.20;;;;;;6186012;23;20024;-81
2022/03/15 00:22:06;;;;;;;18.58;7.25;;;2.00;43.20;;;;;;6185894;23;19989;-81
2022/03/15 00:24:33;;;;;;;20.58;6.97;;;2.00;43.20;;;;;;6211946;23;20017;-81
2022/03/15 00:27:00;;;;;;;15.43;6.82;;;2.00;43.60;;;;;;6212264;23;19989;-79
2022/03/15 00:29:26;;;;;;;31.20;10.45;;;2.00;43.70;;;;;;6185552;23;20016;-79
2022/03/15 00:31:51;;;;;;;17.55;7.50;;;2.00;43.80;;;;;;6211526;23;19981;-78
2022/03/15 00:34:17;;;;;;;14.35;6.70;;;2.00;43.80;;;;;;6183277;23;20016;-80
2022/03/15 00:36:43;;;;;;;18.58;6.63;;;1.90;44.00;;;;;;6207160;23;20001;-80
2022/03/15 00:39:08;;;;;;;14.50;6.22;;;2.00;44.20;;;;;;6181058;23;20009;-79
2022/03/15 00:41:34;;;;;;;14.88;5.70;;;2.00;44.30;;;;;;6184083;23;20005;-79
2022/03/15 00:44:00;;;;;;;12.65;5.47;;;2.00;44.10;;;;;;6207768;23;19989;-80
2022/03/15 00:46:26;;;;;;;;;;;2.10;44.10;;;;;;6182884;23;20012;-80
2022/03/15 00:48:52;;;;;;;12.88;5.10;;;2.10;43.90;;;;;;6207553;23;19896;-80
2022/03/15 00:51:17;;;;;;;;;;;2.20;43.70;;;;;;6183259;23;20009;-79
2022/03/15 00:53:43;;;;;;;12.60;5.32;;;2.30;43.60;;;;;;6183071;23;19888;-78
2022/03/15 00:56:09;;;;;;;14.00;6.30;;;2.30;43.50;;;;;;6209524;23;20005;-80
2022/03/15 00:58:34;;;;;;;15.68;6.70;;;2.40;43.40;;;;;;6184512;23;20068;-78
2022/03/15 01:01:00;;;;;;;14.05;6.00;;;2.30;43.40;;;;;;6208831;23;20001;-78
2022/03/15 01:03:26;;;;;;;17.42;6.35;;;2.20;43.50;;;;;;6183862;23;20046;-80
2022/03/15 01:05:52;;;;;;;13.65;6.50;;;2.20;43.90;;;;;;6212359;23;20004;-80
2022/03/15 01:08:17;;;;;;;;;;;2.10;44.00;;;;;;6186977;23;20001;-81
2022/03/15 01:10:43;;;;;;;15.88;6.03;;;2.00;44.20;;;;;;6212436;23;19891;-79
2022/03/15 01:13:09;;;;;;;;;;;1.90;44.30;;;;;;6186974;23;20060;-81
2022/03/15 01:15:44;;;;;;;18.77;8.13;;;1.90;44.60;;;;;;6210822;23;19904;-80
2022/03/15 01:18:13;;;;;;;16.65;7.47;;;1.80;44.70;;;;;;6207961;23;19996;-78
2022/03/15 01:20:44;;;;;;;16.73;7.47;;;1.80;45.10;;;;;;6207110;23;20024;-80
2022/03/15 01:23:10;;;;;;;19.05;7.93;;;1.80;45.10;;;;;;6208413;23;19996;-80
2022/03/15 01:25:37;;;;;;;19.20;7.20;;;1.80;45.20;;;;;;6184171;23;20005;-78
2022/03/15 01:28:04;;;;;;;13.32;6.03;;;1.80;45.20;;;;;;6207626;23;19988;-80
2022/03/15 01:30:30;;;;;;;17.00;7.35;;;1.80;45.20;;;;;;6206590;23;20039;-78
2022/03/15 01:32:56;;;;;;;17.67;7.68;;;1.90;45.10;;;;;;6206245;23;20001;-79
2022/03/15 01:35:22;;;;;;;17.98;8.23;;;1.90;45.00;;;;;;6207913;23;20036;-79
2022/03/15 01:37:48;;;;;;;18.30;7.70;;;1.80;45.30;;;;;;6182029;23;20442;-79
2022/03/15 01:40:14;;;;;;;20.40;6.90;;;1.80;45.30;;;;;;6208641;23;20001;-79
2022/03/15 01:42:40;;;;;;;18.02;7.35;;;1.80;45.30;;;;;;6206499;23;20008;-80
2022/03/15 01:45:06;;;;;;;;;;;1.80;45.70;;;;;;6207225;23;20005;-78
2022/03/15 01:47:32;;;;;;;18.60;7.78;;;1.80;45.70;;;;;;6182274;23;19900;-79
2022/03/15 01:49:58;;;;;;;;;;;1.70;45.70;;;;;;6209496;23;20462;-79
2022/03/15 01:52:24;;;;;;;19.70;8.48;;;1.80;45.70;;;;;;6181354;23;19907;-80
2022/03/15 01:54:50;;;;;;;25.23;8.43;;;1.80;45.80;;;;;;6206580;23;20005;-80
2022/03/15 01:57:16;;;;;;;20.98;8.82;;;1.70;45.90;;;;;;6207846;23;19985;-79
2022/03/15 01:59:42;;;;;;;;;;;1.80;46.00;;;;;;6182884;23;20005;-79
2022/03/15 02:02:08;;;;;;;19.77;7.45;;;1.70;45.80;;;;;;6207890;23;19892;-79
2022/03/15 02:04:36;;;;;;;21.55;8.45;;;1.70;45.80;;;;;;6181899;23;20008;-79
2022/03/15 02:07:10;;;;;;;21.13;8.93;;;1.70;46.00;;;;;;6207767;23;19985;-78
2022/03/15 02:09:36;;;;;;;26.20;9.13;;;1.70;46.10;;;;;;6182650;23;20024;-78
2022/03/15 02:12:03;;;;;;;24.00;9.95;;;1.60;46.50;;;;;;6203430;23;20005;-79
2022/03/15 02:14:29;;;;;;;23.70;9.73;;;1.50;46.50;;;;;;6204692;23;20088;-80
2022/03/15 02:16:55;;;;;;;23.73;9.95;;;1.60;46.50;;;;;;6185060;23;20012;-80
2022/03/15 02:19:22;;;;;;;24.15;9.85;;;1.50;46.70;;;;;;6176707;23;20051;-82
2022/03/15 02:21:49;;;;;;;29.65;12.35;;;1.50;46.70;;;;;;6208618;23;20000;-78
2022/03/15 02:24:15;;;;;;;33.35;12.38;;;1.50;46.70;;;;;;6209664;23;19989;-80
2022/03/15 02:26:41;;;;;;;24.23;9.20;;;1.50;46.70;;;;;;6185255;23;20008;-80
2022/03/15 02:29:07;;;;;;;17.52;7.35;;;1.50;46.60;;;;;;6184294;23;20005;-79
2022/03/15 02:31:32;;;;;;;16.00;5.90;;;1.50;46.70;;;;;;6186401;23;20036;-81
2022/03/15 02:33:58;;;;;;;;;;;1.50;46.60;;;;;;6210940;23;20016;-80
2022/03/15 02:36:23;;;;;;;17.73;7.43;;;1.50;46.50;;;;;;6210660;23;19939;-80
2022/03/15 02:38:49;;;;;;;16.63;7.18;;;1.50;46.50;;;;;;6184894;23;19992;-81
2022/03/15 02:41:15;;;;;;;22.33;8.00;;;1.50;46.50;;;;;;6182831;23;20032;-80
2022/03/15 02:43:42;;;;;;;17.27;6.18;;;1.50;46.60;;;;;;6183047;23;20005;-80
2022/03/15 02:46:08;;;;;;;12.70;5.25;;;1.60;46.50;;;;;;6207205;23;19996;-80
2022/03/15 02:48:34;;;;;;;16.42;6.28;;;1.70;46.20;;;;;;6208830;23;20005;-80
2022/03/15 02:51:01;;;;;;;28.98;9.38;;;1.70;46.00;;;;;;6181805;23;19993;-81
2022/03/15 02:53:27;;;;;;;23.35;9.25;;;1.70;46.00;;;;;;6206203;23;19997;-81
2022/03/15 02:55:53;;;;;;;20.10;7.88;;;1.60;46.30;;;;;;6180907;23;19993;-79
2022/03/15 02:58:19;;;;;;;22.20;7.63;;;1.50;46.40;;;;;;6182690;23;20048;-80
2022/03/15 03:00:45;;;;;;;20.23;7.60;;;1.50;46.50;;;;;;6208123;23;19999;-79
2022/03/15 03:03:11;;;;;;;;;;;1.40;46.70;;;;;;6207528;23;20443;-80
2022/03/15 03:05:37;;;;;;;25.67;8.00;;;1.40;46.90;;;;;;6202096;23;19904;-80
2022/03/15 03:08:04;;;;;;;17.70;7.68;;;1.30;47.20;;;;;;6178734;23;20005;-80
2022/03/15 03:10:30;;;;;;;14.05;6.18;;;1.20;47.30;;;;;;6180387;23;20077;-79
2022/03/15 03:12:56;;;;;;;25.30;8.02;;;1.20;47.40;;;;;;6206895;23;20370;-81
2022/03/15 03:15:22;;;;;;;;;;;1.30;47.50;;;;;;6181956;23;20063;-80
2022/03/15 03:17:48;;;;;;;14.00;6.22;;;1.20;47.50;;;;;;6182642;23;19900;-80
2022/03/15 03:20:21;;;;;;;14.88;6.32;;;1.20;47.70;;;;;;6209428;23;20005;-80
2022/03/15 03:22:48;;;;;;;15.63;5.45;;;1.20;47.60;;;;;;6207916;23;20009;-79
2022/03/15 03:25:13;;;;;;;11.57;5.25;;;1.20;47.60;;;;;;6209310;23;19997;-80
2022/03/15 03:27:39;;;;;;;16.52;6.88;;;1.20;47.70;;;;;;6209046;23;20419;-81
2022/03/15 03:30:06;;;;;;;16.85;5.47;;;1.10;47.90;;;;;;6181953;23;20009;-79
2022/03/15 03:32:32;;;;;;;10.98;4.18;;;1.10;48.30;;;;;;6183175;23;20060;-79
2022/03/15 03:35:04;;;;;;;;;;;1.10;48.30;;;;;;6210615;23;20016;-80
2022/03/15 03:37:30;;;;;;;14.55;5.05;;;1.10;48.20;;;;;;6183954;23;19920;-80
2022/03/15 03:39:56;;;;;;;8.13;4.05;;;1.10;48.20;;;;;;6208499;23;20005;-79
2022/03/15 03:42:22;;;;;;;11.57;3.90;;;1.10;48.30;;;;;;6184221;23;20079;-79
2022/03/15 03:44:48;;;;;;;7.90;3.88;;;1.10;49.10;;;;;;6183398;23;20012;-79
2022/03/15 03:47:13;;;;;;;;;;;1.10;48.40;;;;;;6184239;23;20060;-80
2022/03/15 03:49:40;;;;;;;12.40;7.03;;;1.00;48.40;;;;;;6183121;23;19904;-80
2022/03/15 03:52:06;;;;;;;16.75;8.38;;;0.90;48.70;;;;;;6184043;23;20040;-80
2022/03/15 03:54:33;;;;;;;16.15;8.90;;;0.90;49.70;;;;;;6209853;23;20005;-80
2022/03/15 03:56:59;;;;;;;18.95;9.77;;;0.80;49.30;;;;;;6182788;23;20016;-79
2022/03/15 03:59:24;;;;;;;24.67;12.75;;;0.80;49.50;;;;;;6208508;23;19985;-80
2022/03/15 04:01:50;;;;;;;23.58;11.35;;;0.80;49.70;;;;;;6209448;23;19989;-80
2022/03/15 04:04:16;;;;;;;28.50;15.68;;;0.80;50.00;;;;;;6183082;23;19997;-80
2022/03/15 04:06:42;;;;;;;28.77;16.17;;;0.70;50.00;;;;;;6207433;23;20005;-79
2022/03/15 04:09:09;;;;;;;;;;;0.70;50.10;;;;;;6182602;23;20505;-79
2022/03/15 04:11:36;;;;;;;25.58;13.18;;;0.70;50.10;;;;;;6183886;23;19890;-80
2022/03/15 04:14:03;;;;;;;19.67;8.48;;;0.70;50.30;;;;;;6207439;23;19989;-79
2022/03/15 04:16:30;;;;;;;16.60;7.60;;;0.70;50.20;;;;;;6182394;23;20020;-78
2022/03/15 04:18:56;;;;;;;19.55;7.82;;;0.80;49.80;;;;;;6208834;23;20113;-79
2022/03/15 04:21:24;;;;;;;21.80;8.45;;;0.90;49.70;;;;;;6208479;23;20074;-79
2022/03/15 04:23:56;;;;;;;19.10;7.68;;;0.90;49.60;;;;;;6207802;23;19997;-80
2022/03/15 04:26:23;;;;;;;12.30;5.55;;;0.80;49.70;;;;;;6208030;23;20066;-79
2022/03/15 04:28:49;;;;;;;13.52;6.32;;;0.80;50.00;;;;;;6180500;23;20016;-79
2022/03/15 04:31:14;;;;;;;15.60;6.22;;;0.80;50.30;;;;;;6182410;23;19997;-80
2022/03/15 04:33:40;;;;;;;;;;;0.70;50.20;;;;;;6183007;23;20017;-79
2022/03/15 04:36:06;;;;;;;17.23;6.38;;;0.60;50.30;;;;;;6208559;23;19884;-80
2022/03/15 04:38:32;;;;;;;13.57;5.50;;;0.60;50.80;;;;;;6181321;23;20001;-80
2022/03/15 04:40:59;;;;;;;;;;;0.60;50.90;;;;;;6181341;23;20028;-79
2022/03/15 04:43:24;;;;;;;11.30;5.00;;;0.50;50.70;;;;;;6209765;23;19901;-80
2022/03/15 04:45:50;;;;;;;;;;;0.50;51.10;;;;;;6209819;23;20032;-80
2022/03/15 04:48:21;;;;;;;11.23;5.10;;;0.50;51.30;;;;;;6206246;23;19939;-80
2022/03/15 04:50:47;;;;;;;7.88;4.40;;;0.40;51.10;;;;;;6181723;23;20027;-79
2022/03/15 04:53:13;;;;;;;;;;;0.40;51.30;;;;;;6185563;23;20005;-80
2022/03/15 04:55:39;;;;;;;17.70;8.57;;;0.50;51.60;;;;;;6210490;23;19896;-80
2022/03/15 04:58:04;;;;;;;22.50;6.95;;;0.50;51.60;;;;;;6181746;23;20005;-80
2022/03/15 05:00:30;;;;;;;30.15;13.80;;;0.40;51.60;;;;;;6207570;23;20008;-80
2022/03/15 05:02:56;;;;;;;16.63;7.53;;;0.40;51.70;;;;;;6207455;23;20001;-80
2022/03/15 05:05:21;;;;;;;18.33;6.38;;;0.50;51.80;;;;;;6207388;23;19981;-80
2022/03/15 05:07:47;;;;;;;14.68;6.40;;;0.50;51.80;;;;;;6206231;23;20016;-78
2022/03/15 05:12:57;;;;;;;17.15;6.18;;;0.50;52.30;;;;;;6207304;23;19923;-79
2022/03/15 05:15:23;;;;;;;;;;;0.40;52.30;;;;;;6182177;23;20033;-80
2022/03/15 05:17:49;;;;;;;15.32;5.95;;;0.40;52.30;;;;;;6207089;23;19912;-79
2022/03/15 05:20:15;;;;;;;12.32;5.15;;;0.40;52.30;;;;;;6207402;23;20344;-80
2022/03/15 05:22:42;;;;;;;;;;;0.40;52.30;;;;;;6208284;23;20020;-80
2022/03/15 05:25:08;;;;;;;25.38;10.55;;;0.40;52.70;;;;;;6207378;23;19903;-80
2022/03/15 05:27:34;;;;;;;;;;;0.40;52.80;;;;;;6205814;23;20004;-80
2022/03/15 05:30:00;;;;;;;45.15;14.23;;;0.50;53.00;;;;;;6207887;23;19908;-79
2022/03/15 05:32:26;;;;;;;51.60;17.40;;;0.60;52.80;;;;;;6207809;23;20012;-81
2022/03/15 05:34:52;;;;;;;52.75;15.77;;;0.70;52.50;;;;;;6208573;23;20005;-80
2022/03/15 05:37:18;;;;;;;;;;;0.80;51.90;;;;;;6181135;23;20001;-80
2022/03/15 05:39:43;;;;;;;35.28;12.52;;;0.90;51.70;;;;;;6180720;23;19906;-79
2022/03/15 05:42:12;;;;;;;25.58;10.40;;;1.10;51.40;;;;;;6206195;23;20358;-79
2022/03/15 05:44:38;;;;;;;23.42;9.88;;;1.20;51.10;;;;;;6208353;23;19985;-80
2022/03/15 05:47:04;;;;;;;24.10;9.85;;;1.40;50.80;;;;;;6183700;23;20011;-80
2022/03/15 05:49:30;;;;;;;24.58;9.27;;;1.50;50.60;;;;;;6207836;23;20334;-79
2022/03/15 05:51:55;;;;;;;;;;;1.50;50.50;;;;;;6183294;23;20001;-80
2022/03/15 05:54:21;;;;;;;42.47;14.80;;;1.60;50.40;;;;;;6207903;23;19908;-79
2022/03/15 05:56:46;;;;;;;;;;;1.80;50.20;;;;;;6180545;23;20009;-80
2022/03/15 05:59:13;;;;;;;85.68;32.03;;;2.00;49.90;;;;;;6204813;23;19907;-79
2022/03/15 06:01:39;;;;;;;52.80;20.20;;;2.30;50.50;;;;;;6205476;23;20008;-80
2022/03/15 06:04:05;;;;;;;74.95;22.63;;;2.80;48.80;;;;;;6205977;23;19985;-79
2022/03/15 06:06:31;;;;;;;27.63;11.07;;;3.50;47.00;;;;;;6207657;23;20000;-79
2022/03/15 06:08:56;;;;;;;22.75;8.98;;;4.00;45.20;;;;;;6207748;23;19985;-79
2022/03/15 06:11:22;;;;;;;21.73;9.45;;;4.50;44.30;;;;;;6207447;23;20009;-79
2022/03/15 06:13:48;;;;;;;45.38;18.38;;;4.80;43.50;;;;;;6207847;23;20027;-80
2022/03/15 06:16:14;;;;;;;34.45;14.05;;;5.20;43.10;;;;;;6180496;23;20006;-79
2022/03/15 06:18:39;;;;;;;78.75;31.40;;;5.60;42.80;;;;;;6180753;23;20057;-79
2022/03/15 06:21:05;;;;;;;73.57;32.40;;;6.00;41.60;;;;;;6182865;23;20060;-80
2022/03/15 06:23:31;;;;;;;79.55;32.83;;;6.40;40.60;;;;;;6208224;23;20061;-80
2022/03/15 06:25:56;;;;;;;;;;;6.90;40.10;;;;;;6184278;23;19992;-79
2022/03/15 06:28:22;;;;;;;43.53;20.83;;;7.30;38.20;;;;;;6209331;23;20438;-79
2022/03/15 06:30:48;;;;;;;43.75;22.48;;;7.70;37.00;;;;;;6209680;23;20005;-80
2022/03/15 06:33:14;;;;;;;;;;;8.30;36.90;;;;;;6185937;23;20458;-82
2022/03/15 06:35:42;;;;;;;29.48;15.40;;;8.80;35.50;;;;;;6158899;23;19924;-80
2022/03/15 06:38:09;;;;;;;29.38;13.82;;;9.40;34.00;;;;;;6177402;23;20008;-89
2022/03/15 06:40:36;;;;;;;23.70;13.32;;;10.10;32.40;;;;;;6150872;23;20005;-88
2022/03/15 06:43:02;;;;;;;24.60;13.38;;;10.80;30.30;;;;;;6177037;23;20005;-86
2022/03/15 06:45:28;;;;;;;21.02;12.93;;;11.60;29.50;;;;;;6150841;23;20420;-87
2022/03/15 06:47:54;;;;;;;;;;;12.40;28.10;;;;;;6151050;23;20477;-85
2022/03/15 06:50:20;;;;;;;33.03;21.05;;;12.90;27.10;;;;;;6150432;23;19908;-83
2022/03/15 06:52:46;;;;;;;;;;;13.30;26.40;;;;;;6177689;23;20005;-83
2022/03/15 06:55:13;;;;;;;21.92;12.02;;;13.70;25.20;;;;;;6150970;23;19904;-84
2022/03/15 06:57:39;;;;;;;19.88;10.90;;;14.30;24.80;;;;;;6150430;23;20013;-81
2022/03/15 07:00:06;;;;;;;;;;;14.60;24.00;;;;;;6150516;23;20095;-83
2022/03/15 07:02:31;;;;;;;18.15;11.50;;;14.90;23.50;;;;;;6150723;23;19975;-83
2022/03/15 07:04:57;;;;;;;;;;;15.20;23.30;;;;;;6177530;23;20037;-82
2022/03/15 07:07:23;;;;;;;16.98;11.30;;;15.50;22.50;;;;;;6150839;23;20227;-82
2022/03/15 07:09:49;;;;;;;;;;;15.80;22.80;;;;;;6176931;23;20017;-82
2022/03/15 07:12:14;;;;;;;22.30;12.47;;;16.00;21.80;;;;;;6150562;23;19910;-84
2022/03/15 07:14:40;;;;;;;15.32;10.60;;;16.30;21.60;;;;;;6149006;23;20032;-83
2022/03/15 07:17:06;;;;;;;22.98;12.75;;;16.40;21.80;;;;;;6150241;23;20005;-82
2022/03/15 07:19:32;;;;;;;22.73;13.43;;;16.60;22.10;;;;;;6150342;23;20013;-83
2022/03/15 07:21:58;;;;;;;22.08;13.55;;;16.90;21.50;;;;;;6176621;23;20021;-83
2022/03/15 07:24:24;;;;;;;20.42;12.85;;;17.00;21.40;;;;;;6150209;23;20080;-83
2022/03/15 07:26:49;;;;;;;25.17;13.85;;;17.40;21.10;;;;;;6176561;23;20005;-83
2022/03/15 07:29:15;;;;;;;22.15;13.23;;;17.60;20.80;;;;;;6175814;23;20028;-81
2022/03/15 07:31:41;;;;;;;25.33;11.82;;;18.00;20.20;;;;;;6176851;23;20320;-80
2022/03/15 07:34:06;;;;;;;25.42;12.27;;;18.30;20.40;;;;;;6177139;23;20009;-81
2022/03/15 07:36:35;;;;;;;17.25;11.20;;;18.70;19.60;;;;;;6176622;23;20001;-81
2022/03/15 07:39:05;;;;;;;19.35;12.07;;;19.20;19.70;;;;;;6176735;23;20088;-79
2022/03/15 07:41:34;;;;;;;18.13;12.20;;;19.20;18.80;;;;;;6150578;23;20005;-80
2022/03/15 07:44:00;;;;;;;15.55;10.90;;;19.30;19.30;;;;;;6176069;23;20439;-79
2022/03/15 07:46:26;;;;;;;17.42;10.50;;;19.60;18.70;;;;;;6150481;23;20005;-79
2022/03/15 07:48:52;;;;;;;18.80;11.48;;;19.70;18.70;;;;;;6177404;23;20265;-80
2022/03/15 07:51:17;;;;;;;19.02;12.00;;;20.00;18.70;;;;;;6149649;23;20008;-80
2022/03/15 07:53:43;;;;;;;19.90;11.35;;;20.20;18.20;;;;;;6176946;23;20020;-79
2022/03/15 07:56:10;;;;;;;25.00;12.02;;;20.40;18.10;;;;;;6176174;23;20013;-79
2022/03/15 07:58:36;;;;;;;19.80;11.43;;;20.60;18.20;;;;;;6176504;23;20051;-80
2022/03/15 08:01:02;;;;;;;21.38;12.80;;;20.80;17.80;;;;;;6176302;23;20009;-79
2022/03/15 08:03:27;;;;;;;25.27;12.27;;;21.00;17.70;;;;;;6149649;23;20450;-80
2022/03/15 08:05:53;;;;;;;26.08;13.55;;;21.10;17.60;;;;;;6151504;23;20005;-78
2022/03/15 08:08:19;;;;;;;15.15;11.00;;;21.10;17.40;;;;;;6178273;23;20017;-80
2022/03/15 08:10:45;;;;;;;20.77;13.43;;;21.40;17.40;;;;;;6178164;23;20070;-80
2022/03/15 08:13:11;;;;;;;26.63;13.00;;;21.40;16.80;;;;;;6177874;23;20072;-79
2022/03/15 08:15:36;;;;;;;18.35;11.57;;;21.20;17.20;;;;;;6179028;23;20013;-81
2022/03/15 08:18:03;;;;;;;28.33;11.23;;;21.40;17.40;;;;;;6151515;23;20029;-79
2022/03/15 08:20:48;;;;;;;13.82;10.35;;;21.50;16.90;;;;;;6178773;23;20088;-81
2022/03/15 08:23:13;;;;;;;19.95;11.23;;;21.70;16.90;;;;;;6178244;23;20338;-82
2022/03/15 08:25:39;;;;;;;19.67;12.82;;;21.70;16.80;;;;;;6177995;23;20084;-81
2022/03/15 08:28:05;;;;;;;24.45;11.18;;;21.90;16.90;;;;;;6177170;23;20017;-81
2022/03/15 08:30:31;;;;;;;18.30;10.80;;;21.80;17.00;;;;;;6152004;23;20017;-83
2022/03/15 08:32:57;;;;;;;14.90;10.05;;;21.60;16.60;;;;;;6152069;23;20392;-83
2022/03/15 08:35:22;;;;;;;22.55;9.88;;;21.60;16.80;;;;;;6178308;23;20023;-82
2022/03/15 08:37:50;;;;;;;17.10;9.63;;;21.70;16.90;;;;;;6177795;23;20008;-82
2022/03/15 08:40:16;;;;;;;13.27;9.45;;;21.40;17.00;;;;;;6151182;23;20009;-83
2022/03/15 08:42:42;;;;;;;18.25;11.48;;;21.60;16.60;;;;;;6176918;23;20052;-83
2022/03/15 08:45:09;;;;;;;18.35;9.13;;;21.90;16.80;;;;;;6178095;23;20008;-83
2022/03/15 08:47:35;;;;;;;18.77;10.38;;;21.80;16.90;;;;;;6151668;23;20033;-82
2022/03/15 08:50:00;;;;;;;15.80;9.85;;;21.70;16.80;;;;;;6177621;23;20028;-82
2022/03/15 08:52:26;;;;;;;15.73;9.93;;;21.70;16.80;;;;;;6151810;23;20005;-82
2022/03/15 08:54:52;;;;;;;17.80;8.48;;;21.70;16.90;;;;;;6177787;23;20009;-82
2022/03/15 08:57:17;;;;;;;21.50;9.65;;;22.00;16.80;;;;;;6151142;23;20450;-82
2022/03/15 08:59:43;;;;;;;16.13;9.10;;;22.00;16.40;;;;;;6151557;23;20000;-82
2022/03/15 09:02:12;;;;;;;11.68;7.47;;;21.80;16.60;;;;;;6151604;23;20054;-82
2022/03/15 09:04:38;;;;;;;15.50;7.78;;;21.80;16.30;;;;;;6177675;23;20001;-83
2022/03/15 09:07:04;;;;;;;12.23;7.28;;;21.80;16.30;;;;;;6177695;23;20005;-82
2022/03/15 09:09:30;;;;;;;25.42;7.72;;;22.20;15.90;;;;;;6177475;23;20021;-82
2022/03/15 09:11:56;;;;;;;15.40;7.63;;;22.20;16.10;;;;;;6150425;23;20009;-82
2022/03/15 09:14:21;;;;;;;14.40;7.30;;;22.60;15.60;;;;;;6151366;23;20446;-82
2022/03/15 09:16:47;;;;;;;9.32;6.70;;;22.30;15.50;;;;;;6177488;23;20005;-82
2022/03/15 09:19:13;;;;;;;9.68;7.05;;;22.20;16.00;;;;;;6151446;23;20056;-82
2022/03/15 09:21:39;;;;;;;12.10;6.95;;;22.10;15.90;;;;;;6151486;23;20021;-82
2022/03/15 09:24:06;;;;;;;17.02;7.10;;;22.20;15.80;;;;;;6177609;23;20005;-80
2022/03/15 09:26:32;;;;;;;10.98;7.75;;;22.20;15.40;;;;;;6177340;23;20005;-82
2022/03/15 09:28:58;;;;;;;10.32;7.40;;;21.80;15.40;;;;;;6151234;23;20021;-81
2022/03/15 09:31:24;;;;;;;11.93;7.60;;;21.80;15.90;;;;;;6150939;23;20400;-82
2022/03/15 09:33:50;;;;;;;10.30;7.05;;;22.00;16.30;;;;;;6177631;23;20009;-82
2022/03/15 09:36:16;;;;;;;11.00;7.53;;;22.10;15.80;;;;;;6151206;23;20501;-83
2022/03/15 09:38:43;;;;;;;11.10;8.18;;;22.30;15.50;;;;;;6151179;23;20147;-82
2022/03/15 09:41:09;;;;;;;10.02;7.72;;;22.00;15.50;;;;;;6150475;23;20012;-82
2022/03/15 09:43:40;;;;;;;17.55;7.25;;;22.00;16.30;;;;;;6151035;23;20009;-82
2022/03/15 09:46:08;;;;;;;15.35;7.22;;;22.00;16.30;;;;;;6177012;23;20055;-82
2022/03/15 09:48:34;;;;;;;11.93;6.43;;;21.90;16.50;;;;;;6177056;23;20467;-82
2022/03/15 09:51:04;;;;;;;9.32;5.63;;;22.20;16.30;;;;;;6177792;23;20072;-82
2022/03/15 09:53:34;;;;;;;10.90;6.43;;;22.50;16.00;;;;;;6177697;23;20466;-82
2022/03/15 09:56:00;;;;;;;9.48;6.80;;;22.10;15.40;;;;;;6150397;23;20068;-82
2022/03/15 09:58:26;;;;;;;10.10;6.72;;;22.10;16.20;;;;;;6150598;23;20009;-82
2022/03/15 10:00:54;;;;;;;8.93;6.20;;;22.20;16.10;;;;;;6177578;23;20011;-82
2022/03/15 10:03:20;;;;;;;13.98;6.07;;;22.30;16.40;;;;;;6177091;23;20013;-82
2022/03/15 10:05:46;;;;;;;8.65;6.70;;;22.70;16.00;;;;;;6151326;23;20009;-83
2022/03/15 10:08:18;;;;;;;10.00;6.28;;;22.30;15.40;;;;;;6176975;23;20104;-82
2022/03/15 10:10:52;;;;;;;12.80;7.35;;;21.90;15.70;;;;;;6150606;23;20222;-82
2022/03/15 10:13:19;;;;;;;13.25;7.05;;;21.70;15.80;;;;;;6150883;23;20033;-82
2022/03/15 10:16:03;;;;;;;11.50;6.88;;;21.40;16.60;;;;;;6151047;23;20446;-83
2022/03/15 10:18:30;;;;;;;15.73;7.43;;;21.50;16.40;;;;;;6150750;23;20040;-83
2022/03/15 10:20:56;;;;;;;10.52;6.18;;;21.60;16.30;;;;;;6150784;23;20058;-83
2022/03/15 10:23:29;;;;;;;14.20;7.13;;;21.80;16.60;;;;;;6176703;23;20033;-83
2022/03/15 10:25:57;;;;;;;12.13;7.35;;;22.20;16.50;;;;;;6150031;23;20004;-82
2022/03/15 10:28:23;;;;;;;7.45;5.25;;;22.50;16.00;;;;;;6150410;23;20024;-82
2022/03/15 10:30:49;;;;;;;16.55;6.75;;;22.80;16.00;;;;;;6150501;23;20021;-82
2022/03/15 10:33:17;;;;;;;9.75;6.55;;;23.10;15.80;;;;;;6176700;23;20005;-82
2022/03/15 10:35:46;;;;;;;8.43;6.22;;;23.10;15.70;;;;;;6177369;23;20008;-82
2022/03/15 10:38:12;;;;;;;12.65;6.45;;;23.00;15.50;;;;;;6150643;23;20028;-82
2022/03/15 10:40:44;;;;;;;9.48;6.65;;;22.50;16.10;;;;;;6177194;23;20005;-82
2022/03/15 10:43:13;;;;;;;17.73;6.68;;;22.00;16.20;;;;;;6151155;23;20012;-85
2022/03/15 10:45:48;;;;;;;10.18;6.30;;;21.40;16.80;;;;;;6177666;23;20001;-86
2022/03/15 10:48:23;;;;;;;9.63;5.93;;;20.50;17.10;;;;;;6177424;23;20064;-87
2022/03/15 10:50:55;;;;;;;13.80;7.13;;;19.60;17.70;;;;;;6151488;23;20016;-86
2022/03/15 10:53:25;;;;;;;11.68;6.75;;;18.90;18.40;;;;;;6150984;23;20092;-87
2022/03/15 10:56:07;;;;;;;8.82;5.75;;;18.30;18.70;;;;;;6150561;23;20461;-86
2022/03/15 10:58:34;;;;;;;19.10;6.88;;;18.00;19.40;;;;;;6151521;23;20008;-90
2022/03/15 11:01:00;;;;;;;12.80;7.30;;;17.80;19.70;;;;;;6151041;23;20016;-88
2022/03/15 11:03:29;;;;;;;11.00;6.18;;;17.50;19.90;;;;;;6151112;23;20013;-87
2022/03/15 11:05:57;;;;;;;11.40;7.40;;;17.40;19.90;;;;;;6177287;23;20044;-87
2022/03/15 11:08:23;;;;;;;13.55;6.85;;;17.20;20.10;;;;;;6150871;23;20074;-84
2022/03/15 11:10:50;;;;;;;;;;;17.10;20.10;;;;;;6177964;23;20450;-85
2022/03/15 11:13:17;;;;;;;13.13;7.40;;;16.80;20.30;;;;;;6152704;23;20242;-82
2022/03/15 11:15:48;;;;;;;11.52;6.30;;;16.60;20.60;;;;;;6157610;23;20016;-84
2022/03/15 11:18:16;;;;;;;19.75;9.77;;;16.60;21.00;;;;;;6189907;23;20067;-79
2022/03/15 11:20:44;;;;;;;18.48;8.20;;;16.50;20.60;;;;;;6174385;23;20027;-81
2022/03/15 11:23:12;;;;;;;13.45;7.53;;;16.50;20.60;;;;;;6210519;23;20001;-82
2022/03/15 11:25:40;;;;;;;15.82;8.27;;;16.30;20.90;;;;;;6184953;23;20009;-80
2022/03/15 11:28:14;;;;;;;13.32;7.95;;;16.20;20.90;;;;;;6210959;23;19996;-80
2022/03/15 11:30:42;;;;;;;11.07;7.80;;;16.20;21.20;;;;;;6211317;23;20005;-81
2022/03/15 11:33:09;;;;;;;16.55;9.80;;;16.30;21.00;;;;;;6210476;23;20007;-80
2022/03/15 11:35:38;;;;;;;13.57;7.90;;;16.30;20.30;;;;;;6184552;23;20016;-81
2022/03/15 11:38:08;;;;;;;13.82;9.45;;;16.20;20.60;;;;;;6211269;23;20031;-82
2022/03/15 11:40:34;;;;;;;11.50;7.05;;;16.20;20.10;;;;;;6213278;23;20028;-80
2022/03/15 11:43:06;;;;;;;;;;;16.10;20.80;;;;;;6213943;23;19993;-81
2022/03/15 11:45:37;;;;;;;10.32;6.32;;;16.10;20.70;;;;;;6184765;23;19911;-81
2022/03/15 11:48:11;;;;;;;19.13;9.27;;;16.10;20.40;;;;;;6211168;23;20447;-82
2022/03/15 11:51:13;;;;;;;13.80;7.95;;;16.10;20.20;;;;;;6212529;23;20005;-80
2022/03/15 11:53:52;;;;;;;11.63;7.18;;;16.00;20.30;;;;;;6187053;23;20005;-82
2022/03/15 11:56:36;;;;;;;16.58;7.18;;;16.10;20.50;;;;;;6210324;23;20009;-80
2022/03/15 11:59:02;;;;;;;18.90;7.43;;;16.20;20.30;;;;;;6207342;23;20350;-82
2022/03/15 12:01:30;;;;;;;;;;;16.20;20.30;;;;;;6204262;23;20009;-84
2022/03/15 12:03:58;;;;;;;11.13;6.95;;;16.30;20.20;;;;;;6198958;23;19900;-82
2022/03/15 12:06:26;;;;;;;10.48;6.50;;;16.20;20.10;;;;;;6208029;23;19985;-81
2022/03/15 14:57:24;;;;;;;10.15;6.53;;;14.70;22.40;;;;;;6177789;23;20395;-79
2022/03/15 14:59:52;;;;;;;16.23;6.28;;;14.60;22.60;;;;;;6186078;23;20011;-79
2022/03/15 15:02:22;;;;;;;12.00;7.70;;;14.40;22.60;;;;;;6181859;23;20013;-78
2022/03/15 15:04:53;;;;;;;14.77;5.93;;;14.40;22.80;;;;;;6182776;23;20020;-79
2022/03/15 15:07:20;;;;;;;17.42;7.55;;;14.20;22.90;;;;;;6187430;23;20008;-78
2022/03/15 15:09:50;;;;;;;12.20;6.28;;;14.10;23.10;;;;;;6207160;23;20020;-80
2022/03/15 15:12:16;;;;;;;10.88;6.00;;;14.20;23.30;;;;;;6209507;23;19997;-81
2022/03/15 15:14:42;;;;;;;;;;;14.20;23.20;;;;;;6185326;23;19989;-81
2022/03/15 15:17:09;;;;;;;12.63;8.20;;;14.10;23.10;;;;;;6187843;23;19904;-79
2022/03/15 15:19:40;;;;;;;20.17;13.65;;;14.20;23.30;;;;;;6212425;23;20037;-80
2022/03/15 15:22:08;;;;;;;19.98;11.63;;;14.10;23.30;;;;;;6187405;23;20101;-80
2022/03/15 15:24:34;;;;;;;12.85;7.72;;;14.20;23.40;;;;;;6211202;23;20001;-80
2022/03/15 15:27:05;;;;;;;;;;;14.20;23.30;;;;;;6190256;23;20072;-79
2022/03/15 15:29:38;;;;;;;13.30;6.00;;;14.10;23.20;;;;;;6215552;23;19919;-80
2022/03/15 15:32:09;;;;;;;10.07;5.57;;;14.20;23.20;;;;;;6186756;23;20009;-79
2022/03/15 15:34:35;;;;;;;17.30;7.95;;;14.20;23.30;;;;;;6187162;23;19992;-79
2022/03/15 15:37:02;;;;;;;12.05;6.85;;;14.00;23.40;;;;;;6185855;23;19985;-79
2022/03/15 15:39:28;;;;;;;12.30;6.93;;;14.00;23.40;;;;;;6213272;23;20009;-79